KBIV

West Michigan Regional Airport

Holland, Michigan, USA
METAR KBIV 160453Z AUTO 05004KT 9SM CLR 01/M02 A3013 RMK AO2 SLP208 T00111017 400611011 $
Observed Flight Rules
Dec-16 @ 04:53 UTC (59 minutes ago) Visual Flight Rules
Wind Visibility Clouds
50° at 4 knots 9 miles
  • Clear skies
Temperatures Readings
Current 1°C / 34°F
Dewpoint -2°C / 28°F
Humidity 81%
Altimeter 30.13" Hg
Pressure 1020.8 hPa
Elevation 208
METAR KBIV 160453Z AUTO 05004KT 9SM CLR 01/M02 A3013 RMK AO2 SLP208 T00111017 400611011 $
Observed Flight Rules
Dec-16 @ 04:53 UTC
(59 minutes ago)
VFR
Wind Visibility
50° at 4 knots 9 miles
Clouds
  • Clear skies
Temperature Dewpoint
1°C / 34°F -2°C / 28°F
Humidity Altimeter Pressure
81% 30.13" Hg 1020.8 hPa